« CAVOK 富山空港 2014/1/29 wed | トップページ | 定点 富山空港 2014/2/3 mon »

2014/02/02

定点 富山空港 2014/2/2 sun

気がつけば、もう2月。ちっとも冬らしくない日々が続いてもう4月のような雰囲気・・・

RJNT 020100Z 17013KT 140V200 9999 FEW045 BKN070 15/06 Q1007

20140202_rjnt_00ja817a_2

20140202_rjnt_01ja817a_2

20140202_rjnt_02ja817a_2

ANA883 RJTT-RJNT JA817A B787-881

20140202_rjnt_03hl7790_2

20140202_rjnt_04hl7790_2

20140202_rjnt_05hl7790_2

AAR128 RKSI-RJNT HL7790 A321-231

20140202_rjnt_06ja817a_2

20140202_rjnt_07ja817a_2

20140202_rjnt_08ja817a_2

ANA886 RJNT-RJTT JA817A B787-881

20140202_rjnt_09hl7790_2

20140202_rjnt_10hl7790_2

AAR127 RJNT-RKSI HL7790 A321-231

RJNT 020300Z 17014KT 9999 VCSH FEW045 BKN060 14/07 Q1006

20140202_rjnt_11ja11an_2

20140202_rjnt_12ja11an_2

20140202_rjnt_13ja11an_3

ADO120 RJCC-RJNT JA11AN B737-781

RJNT 020500Z 20007KT 100V280 9999 FEW030 BKN040 15/07 Q1006

20140202_rjnt_14ja11an_3

20140202_rjnt_15ja11an_2

20140202_rjnt_16ja11an_2

ADO121 RJNT-RJCC JA11AN B737-781

20140202_rjnt_17ja816a_2

20140202_rjnt_18ja816a_2

20140202_rjnt_19ja816a_2

ANA885 RJTT-RJNT JA816A B787-881

20140202_rjnt_20ja816a_2

20140202_rjnt_21ja816a_2

20140202_rjnt_22ja816a_2

20140202_rjnt_23ja816a_2

20140202_rjnt_24ja816a_2

20140202_rjnt_25ja816a_2

ANA888 RJNT-RJTT JA816A B787-881

直上を通過していくのだが、すんごく静か。

RJNT 020700Z 18006KT 140V200 9999 FEW030 BKN040 14/07 Q1007

20140202_rjnt_26ja817a_2

20140202_rjnt_27ja817a

ANA887 RJTT-RJNT JA817A B787-881

20140202_rjnt_28kamome

今日のかもめ石

ちなみに今日は始発と最終以外はB788のドリームデイ

           /882 JA8669

ANA881/883 JA8674

ANA883/886 JA817A

ANA885/888 JA816A

ANA887/890 JA817A

ANA889/892 JA821A

ANA891       JA8971

|

« CAVOK 富山空港 2014/1/29 wed | トップページ | 定点 富山空港 2014/2/3 mon »

富山空港」カテゴリの記事

コメント

コメントを書く



(ウェブ上には掲載しません)


コメントは記事投稿者が公開するまで表示されません。



トラックバック


この記事へのトラックバック一覧です: 定点 富山空港 2014/2/2 sun:

« CAVOK 富山空港 2014/1/29 wed | トップページ | 定点 富山空港 2014/2/3 mon »